Latest Weather Observations for Temora

IDN60801

Issued at 10:04 pm EST Wednesday 24 August 2016 (issued every 30 minutes, with the page automatically refreshed every 10 minutes)

About weather observations | Map of weather stations | Latest weather observations for NSW | Other Formats
Station Details ID: 073151 Name: TEMORA AIRPORT Lat: -34.43 Lon: 147.51 Height: 280.5 m
Data from the previous 72 hours. | See also: Recent months at Temora
Date/Time
EST
Temp
°C
App
Temp
°C
Dew
Point
°C
Rel
Hum
%
Delta-T
°C
Wind Press
QNH
hPa
Press
MSL
hPa
Rain since
9am
mm
Dir  Spd
km/h
Gust
km/h
Spd
kts
Gust
kts
24/10:00pm 7.8 5.9 7.5 98 0.1 WSW 7 7 4 4 1011.6 1011.9 2.6
24/09:30pm 7.9 6.0 7.6 98 0.1 SSW 7 9 4 5 1011.3 1011.6 2.6
24/09:00pm 8.0 5.4 7.6 97 0.2 SSW 11 13 6 7 1011.5 1011.8 2.2
24/08:30pm 8.2 5.6 7.6 96 0.3 SSW 11 15 6 8 1011.6 1011.9 2.0
24/08:00pm 8.2 5.9 7.6 96 0.3 SSW 9 13 5 7 1011.6 1011.9 2.0
24/07:30pm 8.1 5.5 7.7 97 0.2 SSW 11 15 6 8 1011.4 1011.7 1.8
24/07:00pm 8.2 5.5 7.4 95 0.4 SSW 11 13 6 7 1010.9 1011.3 1.6
24/06:30pm 8.3 6.0 7.4 94 0.4 SSW 9 13 5 7 1010.6 1011.0 1.4
24/06:00pm 8.5 5.9 7.9 96 0.3 SSW 11 15 6 8 1010.5 1010.9 1.2
24/05:30pm 8.7 6.1 7.6 93 0.5 SSW 11 15 6 8 1010.2 1010.6 1.0
24/05:00pm 9.6 7.8 8.0 90 0.8 SSW 7 13 4 7 1009.8 1010.2 0.8
24/04:30pm 10.4 8.9 8.5 88 0.9 NNW 6 7 3 4 1009.7 1010.1 0.0
24/04:00pm 10.8 8.8 8.7 87 1.1 NNE 9 11 5 6 1009.6 1010.0 0.0
24/03:30pm 11.0 8.3 8.8 86 1.1 NE 13 15 7 8 1009.5 1009.9 0.0
24/03:00pm 11.8 9.0 8.5 80 1.7 NE 13 15 7 8 1009.4 1009.8 0.0
24/02:30pm 11.9 8.5 7.6 75 2.1 ENE 15 19 8 10 1009.5 1009.9 0.0
24/02:00pm 12.3 8.9 7.6 73 2.3 ENE 15 20 8 11 1009.7 1010.1 0.0
24/01:30pm 12.5 9.1 7.8 73 2.3 E 15 20 8 11 1010.3 1010.7 0.0
24/01:00pm 12.7 8.6 8.0 73 2.4 ENE 19 24 10 13 1010.4 1010.8 0.0
24/12:30pm 12.0 7.8 7.5 74 2.2 E 19 26 10 14 1010.9 1011.3 0.0
24/12:00pm 12.0 8.7 7.9 76 2.0 ENE 15 20 8 11 1011.3 1011.6 0.0
24/11:30am 12.0 8.6 7.7 75 2.1 E 15 22 8 12 1011.8 1012.1 0.0
24/11:00am 11.8 8.5 8.1 78 1.8 E 15 20 8 11 1012.0 1012.3 0.0
24/10:30am 11.5 8.6 8.0 79 1.7 E 13 19 7 10 1012.6 1013.0 0.0
24/10:00am 11.2 8.4 8.4 83 1.4 E 13 17 7 9 1012.8 1013.2 0.0
24/09:30am 10.1 7.8 7.5 84 1.3 E 9 13 5 7 1013.2 1013.6 0.0
24/09:00am 9.7 7.4 7.3 85 1.2 E 9 15 5 8 1013.5 1013.9 0.0
24/08:30am 9.5 6.4 7.4 87 1.0 ESE 13 17 7 9 1013.2 1013.6 0.0
24/08:00am 8.5 6.1 7.1 91 0.7 SE 9 11 5 6 1013.4 1013.8 0.0
24/07:30am 7.5 5.4 6.8 95 0.3 SSE 7 9 4 5 1013.3 1013.7 0.0
24/07:00am 6.7 4.5 6.1 96 0.3 S 7 9 4 5 1013.2 1013.6 0.0
24/06:30am 6.6 4.0 6.0 96 0.3 S 9 11 5 6 1013.2 1013.6 0.0
24/06:00am 6.1 3.7 5.2 94 0.4 SSE 7 9 4 5 1013.0 1013.4 0.0
24/05:30am 6.8 3.9 6.5 98 0.1 SE 11 15 6 8 1012.7 1013.1 0.0
24/05:00am 5.7 3.4 5.6 99 0.0 SSE 7 9 4 5 1012.9 1013.3 0.0
24/04:30am 5.1 2.2 4.4 95 0.3 S 9 11 5 6 1013.1 1013.5 0.0
24/04:00am 6.3 3.3 6.2 99 0.0 SE 11 13 6 7 1012.9 1013.3 0.0
24/03:30am 5.2 2.7 4.8 97 0.2 S 7 9 4 5 1013.1 1013.5 0.0
24/03:00am 6.0 3.7 5.9 99 0.0 S 7 9 4 5 1013.4 1013.8 0.0
24/02:30am 5.7 3.0 5.4 98 0.1 S 9 13 5 7 1013.8 1014.2 0.0
24/02:00am 6.2 4.0 6.1 99 0.0 SSE 7 9 4 5 1014.0 1014.4 0.0
24/01:30am 6.4 3.5 6.3 99 0.0 S 11 15 6 8 1014.0 1014.4 0.0
24/01:00am 6.4 4.4 6.3 99 0.0 SSW 6 6 3 3 1014.9 1015.2 0.0
24/12:30am 5.8 3.7 5.7 99 0.0 SW 6 7 3 4 1015.0 1015.3 0.0
24/12:00am 5.7 3.9 5.6 99 0.0 W 4 9 2 5 1015.2 1015.6 0.0
 
Date/Time
EST
Temp
°C
App
Temp
°C
Dew
Point
°C
Rel
Hum
%
Delta-T
°C
Wind Press
QNH
hPa
Press
MSL
hPa
Rain since
9am
mm
Dir  Spd
km/h
Gust
km/h
Spd
kts
Gust
kts
23/11:30pm 5.5 4.5 5.4 99 0.0 CALM 0 0 0 0 1015.6 1016.0 0.0
23/11:00pm 4.6 2.2 4.5 99 0.0 S 6 7 3 4 1015.9 1016.3 0.0
23/10:30pm 4.8 2.3 4.7 99 0.0 SSE 7 9 4 5 1015.9 1016.3 0.0
23/10:00pm 5.5 2.4 5.4 99 0.0 S 11 11 6 6 1016.2 1016.6 0.0
23/09:30pm 4.8 2.3 4.7 99 0.0 SSW 7 11 4 6 1016.2 1016.6 0.0
23/09:00pm 6.2 4.0 6.1 99 0.0 S 7 7 4 4 1015.9 1016.3 0.0
23/08:30pm 5.9 3.7 5.3 96 0.3 SW 6 7 3 4 1016.3 1016.7 0.0
23/08:00pm 7.5 5.6 6.9 96 0.3 S 6 7 3 4 1016.2 1016.6 0.0
23/07:30pm 7.5 5.1 7.2 98 0.1 S 9 13 5 7 1016.0 1016.4 0.0
23/07:00pm 7.4 5.0 6.8 96 0.3 S 9 9 5 5 1016.1 1016.5 0.0
23/06:30pm 8.2 6.3 6.8 91 0.7 SW 6 7 3 4 1016.2 1016.6 0.0
23/06:00pm 9.1 7.2 7.4 89 0.8 SSW 7 9 4 5 1015.8 1016.2 0.0
23/05:30pm 10.2 8.6 7.8 85 1.2 WSW 6 6 3 3 1015.8 1016.2 0.0
23/05:00pm 10.8 9.4 7.1 78 1.8 SW 4 7 2 4 1015.7 1016.1 0.0
23/04:30pm 11.2 9.6 7.9 80 1.6 W 6 7 3 4 1015.8 1016.2 0.0
23/04:00pm 11.3 9.2 6.8 74 2.2 WSW 7 7 4 4 1015.6 1016.0 0.0
23/03:30pm 11.5 9.4 6.8 73 2.3 SSW 7 9 4 5 1015.7 1016.1 0.0
23/03:00pm 11.9 10.1 7.2 73 2.3 SSE 6 9 3 5 1015.0 1015.3 0.0
23/02:30pm 11.5 9.2 7.4 76 2.0 SSW 9 13 5 7 1015.2 1015.6 0.0
23/02:00pm 11.4 8.6 7.1 75 2.1 S 11 17 6 9 1015.1 1015.5 0.0
23/01:30pm 11.8 9.4 8.5 80 1.7 S 11 17 6 9 1015.1 1015.5 0.0
23/01:00pm 11.2 8.5 7.3 77 1.9 SW 11 15 6 8 1015.3 1015.7 0.0
23/12:30pm 10.6 7.5 7.1 79 1.7 S 13 19 7 10 1015.9 1016.3 0.0
23/12:00pm 10.2 8.2 7.3 82 1.4 S 7 11 4 6 1016.8 1017.2 0.0
23/11:30am 9.3 6.9 6.9 85 1.1 WSW 9 15 5 8 1017.1 1017.5 0.0
23/11:00am 9.1 6.7 7.1 87 1.0 NW 9 11 5 6 1017.1 1017.5 0.0
23/10:30am 8.8 6.4 7.1 89 0.8 WSW 9 11 5 6 1017.7 1018.1 0.0
23/10:00am 8.6 6.3 7.5 93 0.5 WSW 9 11 5 6 1017.3 1017.7 0.0
23/09:30am 8.1 5.8 7.5 96 0.3 NW 9 13 5 7 1017.3 1017.7 0.0
23/09:00am 7.4 5.6 7.1 98 0.1 NW 6 13 3 7 1017.0 1017.4 14.4
23/08:30am 7.2 5.4 7.1 99 0.0 SW 6 13 3 7 1015.9 1016.3 14.4
23/08:00am 6.6 2.9 6.5 99 0.0 S 15 22 8 12 1014.2 1014.6 14.4
23/07:30am 6.5 3.6 6.4 99 0.0 S 11 15 6 8 1015.0 1015.3 14.4
23/07:00am 6.2 3.6 6.1 99 0.0 SSW 9 13 5 7 1015.4 1015.8 14.4
23/06:30am 6.4 4.2 6.3 99 0.0 SE 7 13 4 7 1015.2 1015.6 14.4
23/06:00am 6.2 3.6 5.9 98 0.1 SSW 9 13 5 7 1014.9 1015.2 14.4
23/05:30am 6.9 4.0 6.6 98 0.1 SSW 11 17 6 9 1014.4 1014.8 14.4
23/05:00am 6.7 4.2 6.4 98 0.1 SW 9 13 5 7 1014.3 1014.7 14.4
23/04:30am 7.5 5.2 7.4 99 0.0 SW 9 15 5 8 1014.2 1014.6 14.4
23/04:00am 7.4 5.6 7.3 99 0.0 SW 6 7 3 4 1014.1 1014.5 14.4
23/03:30am 7.3 6.3 7.2 99 0.0 SW 2 6 1 3 1014.2 1014.6 14.4
23/03:00am 7.3 5.3 7.2 99 0.0 WSW 7 9 4 5 1014.4 1014.8 14.2
23/02:30am 7.4 5.6 7.3 99 0.0 SW 6 9 3 5 1014.6 1015.0 13.8
23/02:00am 7.4 5.6 7.3 99 0.0 SW 6 9 3 5 1014.7 1015.1 13.2
23/01:30am 7.5 5.6 7.4 99 0.0 WSW 7 9 4 5 1014.9 1015.2 12.0
23/01:00am 7.4 5.4 7.3 99 0.0 W 7 9 4 5 1014.9 1015.2 10.6
23/12:30am 7.5 5.6 7.4 99 0.0 WSW 7 9 4 5 1014.9 1015.2 9.6
23/12:00am 7.6 5.7 7.5 99 0.0 W 7 9 4 5 1014.7 1015.1 9.0
 
Date/Time
EST
Temp
°C
App
Temp
°C
Dew
Point
°C
Rel
Hum
%
Delta-T
°C
Wind Press
QNH
hPa
Press
MSL
hPa
Rain since
9am
mm
Dir  Spd
km/h
Gust
km/h
Spd
kts
Gust
kts
22/11:30pm 7.7 6.0 7.4 98 0.1 W 6 7 3 4 1014.7 1015.1 8.2
22/11:00pm 7.8 6.1 7.4 97 0.2 SW 6 7 3 4 1014.5 1014.9 7.6
22/10:30pm 7.9 6.2 7.5 97 0.2 W 6 7 3 4 1014.5 1014.9 6.6
22/10:00pm 7.8 7.2 7.2 96 0.3 CALM 0 0 0 0 1014.3 1014.7 6.0
22/09:30pm 8.1 7.5 7.5 96 0.3 CALM 0 0 0 0 1014.2 1014.6 5.6
22/09:00pm 8.0 7.4 7.2 95 0.4 CALM 0 6 0 3 1014.3 1014.7 5.4
22/08:30pm 8.4 6.7 7.5 94 0.4 NW 6 7 3 4 1014.2 1014.6 5.0
22/08:00pm 8.7 7.0 8.4 98 0.1 SSW 7 11 4 6 1014.2 1014.6 3.8
22/07:30pm 8.9 7.3 8.8 99 0.0 S 7 9 4 5 1014.2 1014.6 3.2
22/07:00pm 9.0 7.6 8.9 99 0.0 SSW 6 7 3 4 1013.9 1014.3 3.0
22/06:30pm 9.1 7.6 8.6 97 0.2 SSW 6 7 3 4 1013.8 1014.2 3.0
22/06:00pm 9.2 8.5 8.6 96 0.3 S 2 7 1 4 1013.6 1014.0 2.8
22/05:30pm 9.3 7.8 8.5 95 0.4 SW 6 9 3 5 1013.3 1013.7 2.8
22/05:00pm 9.8 9.1 8.4 91 0.7 N 2 6 1 3 1013.2 1013.6 2.6
22/04:30pm 9.9 8.3 8.7 92 0.6 N 7 9 4 5 1013.4 1013.8 2.6
22/04:00pm 9.9 8.2 8.3 90 0.8 NNW 7 11 4 6 1013.3 1013.7 2.2
22/03:30pm 10.1 8.1 8.5 90 0.8 NW 9 17 5 9 1013.0 1013.4 1.8
22/03:00pm 10.4 7.8 7.8 84 1.3 NE 11 17 6 9 1012.9 1013.3 1.4
22/02:30pm 9.9 6.6 8.2 89 0.8 E 15 17 8 9 1012.7 1013.1 1.2
22/02:00pm 11.0 7.2 7.7 80 1.6 NNE 17 26 9 14 1013.1 1013.5 0.4
22/01:30pm 13.4 10.4 5.8 60 3.6 E 11 15 6 8 1013.1 1013.5 0.0
22/01:00pm 13.8 10.5 6.4 61 3.6 E 13 20 7 11 1013.7 1014.1 0.0
22/12:30pm 14.4 11.7 7.5 63 3.5 E 11 17 6 9 1014.3 1014.7 0.0
22/12:00pm 14.0 10.9 7.1 63 3.4 ENE 13 20 7 11 1015.0 1015.3 0.0
22/11:30am 13.5 11.2 7.5 67 3.0 ENE 9 15 5 8 1015.6 1016.0 0.0
22/11:00am 12.5 10.1 7.2 70 2.6 ENE 9 13 5 7 1016.1 1016.5 0.0
22/10:30am 12.2 10.0 7.7 74 2.2 NE 9 13 5 7 1016.1 1016.5 0.0
22/10:00am 12.3 10.1 7.8 74 2.2 NE 9 13 5 7 1016.2 1016.6 0.0
22/09:30am 10.7 8.8 6.8 77 1.9 E 6 9 3 5 1016.2 1016.6 0.0
22/09:00am 9.2 7.2 7.0 86 1.0 ESE 7 11 4 6 1016.2 1016.6 0.0
22/08:30am 8.6 6.7 6.6 87 0.9 E 6 7 3 4 1016.6 1017.0 0.0
22/08:00am 8.1 6.0 6.6 90 0.7 ESE 7 11 4 6 1016.4 1016.8 0.0
22/07:30am 7.4 5.3 6.7 95 0.3 ENE 7 13 4 7 1016.5 1016.9 0.0
22/07:00am 6.6 5.0 6.3 98 0.1 SSW 4 9 2 5 1016.4 1016.8 0.0
22/06:30am 6.4 5.1 6.0 97 0.2 NNW 2 7 1 4 1016.5 1016.9 0.0
22/06:00am 6.7 4.4 5.8 94 0.4 NE 7 9 4 5 1016.5 1016.9 0.0
22/05:30am 7.1 4.9 6.4 95 0.3 ENE 7 11 4 6 1016.3 1016.7 0.0
22/05:00am 6.2 4.1 5.8 97 0.2 ENE 6 9 3 5 1016.5 1016.9 0.0
22/04:30am 6.1 4.7 5.7 97 0.2 NE 2 7 1 4 1016.4 1016.8 0.0
22/04:00am 6.3 3.7 5.9 97 0.2 N 9 13 5 7 1016.8 1017.2 0.0
22/03:30am 6.5 4.3 6.1 97 0.2 SSE 7 9 4 5 1016.1 1016.5 0.0
22/03:00am 6.1 4.8 6.0 99 0.0 ESE 2 7 1 4 1016.6 1017.0 0.0
22/02:30am 5.9 4.9 5.8 99 0.0 CALM 0 0 0 0 1017.0 1017.4 0.0
22/02:00am 5.8 4.4 5.7 99 0.0 SSE 2 6 1 3 1017.3 1017.7 0.0
22/01:30am 6.1 4.0 6.0 99 0.0 S 6 9 3 5 1017.6 1018.0 0.0
22/01:00am 5.5 4.5 5.4 99 0.0 CALM 0 0 0 0 1018.0 1018.5 0.0
22/12:30am 5.4 4.3 5.3 99 0.0 CALM 0 0 0 0 1017.7 1018.1 0.0
22/12:00am 4.8 3.6 4.5 98 0.1 CALM 0 0 0 0 1017.5 1017.9 0.0
 
Date/Time
EST
Temp
°C
App
Temp
°C
Dew
Point
°C
Rel
Hum
%
Delta-T
°C
Wind Press
QNH
hPa
Press
MSL
hPa
Rain since
9am
mm
Dir  Spd
km/h
Gust
km/h
Spd
kts
Gust
kts
21/11:30pm 5.6 4.5 5.3 98 0.1 CALM 0 0 0 0 1017.6 1018.0 0.0
21/11:00pm 5.5 4.4 5.2 98 0.1 CALM 0 0 0 0 1017.8 1018.2 0.0
21/10:30pm 5.1 3.9 4.5 96 0.3 CALM 0 0 0 0 1018.0 1018.5 0.0

Other Formats:

Comma delimited format used in spreadsheet applications
http://www.bom.gov.au/fwo/IDN60801/IDN60801.95722.axf

JavaScript Object Notation format (JSON) in row-major order
http://www.bom.gov.au/fwo/IDN60801/IDN60801.95722.json